createdAt,value
2022-11-04T00:01:41.058Z,67.48
2022-11-04T00:04:10.029Z,67.58
2022-11-04T00:06:38.596Z,67.91
2022-11-04T00:09:10.691Z,67.94
2022-11-04T00:11:56.063Z,67.50
2022-11-04T00:14:23.954Z,67.63
2022-11-04T00:17:09.394Z,67.49
2022-11-04T00:19:51.132Z,67.86
2022-11-04T00:22:36.187Z,67.81
2022-11-04T00:25:23.735Z,68.27
2022-11-04T00:28:09.376Z,67.86
2022-11-04T00:30:37.631Z,67.80
2022-11-04T00:33:31.276Z,68.19
2022-11-04T00:35:59.072Z,67.72
2022-11-04T00:38:27.155Z,68.56
2022-11-04T00:40:56.387Z,68.22
2022-11-04T00:43:24.228Z,68.50
2022-11-04T00:45:52.016Z,68.74
2022-11-04T00:48:19.882Z,68.77
2022-11-04T00:50:47.655Z,68.93
2022-11-04T00:53:15.504Z,68.79
2022-11-04T00:55:43.453Z,69.13
2022-11-04T00:58:12.580Z,69.26
2022-11-04T01:00:40.571Z,69.37
2022-11-04T01:03:08.668Z,68.97
2022-11-04T01:05:38.661Z,69.43
2022-11-04T01:08:06.600Z,69.53
2022-11-04T01:10:36.196Z,69.67
2022-11-04T01:13:04.115Z,70.06
2022-11-04T01:15:33.242Z,69.71
2022-11-04T01:18:01.065Z,70.26
2022-11-04T01:20:28.860Z,70.18
2022-11-04T01:22:56.687Z,70.33
2022-11-04T01:25:24.514Z,70.95
2022-11-04T01:27:52.395Z,70.69
2022-11-04T01:30:20.404Z,70.98
2022-11-04T01:32:49.572Z,71.44
2022-11-04T01:35:17.557Z,70.98
2022-11-04T01:37:45.364Z,70.90
2022-11-04T01:40:13.433Z,71.63
2022-11-04T01:42:41.291Z,71.76
2022-11-04T01:45:14.631Z,71.82
2022-11-04T01:47:45.708Z,71.85
2022-11-04T01:50:18.279Z,71.95
2022-11-04T01:52:51.716Z,71.93
2022-11-04T01:55:24.965Z,71.88
2022-11-04T01:57:56.651Z,71.77
2022-11-04T02:00:24.869Z,71.38
2022-11-04T02:02:59.947Z,71.80
2022-11-04T02:05:31.293Z,71.54
2022-11-04T02:08:01.231Z,71.19
2022-11-04T02:10:30.811Z,71.13
2022-11-04T02:13:02.028Z,70.92
2022-11-04T02:15:40.955Z,70.18
2022-11-04T02:18:30.691Z,70.63
2022-11-04T02:21:23.588Z,70.93
2022-11-04T02:24:41.989Z,70.88
2022-11-04T02:27:31.248Z,70.20
2022-11-04T02:30:08.012Z,69.93
2022-11-04T02:32:43.390Z,69.81
2022-11-04T02:35:19.732Z,70.20
2022-11-04T02:37:57.222Z,69.46
2022-11-04T02:40:32.956Z,69.36
2022-11-04T02:43:03.918Z,69.69
2022-11-04T02:45:38.998Z,69.74
2022-11-04T02:48:12.375Z,69.42
2022-11-04T02:50:45.058Z,69.80
2022-11-04T02:53:18.358Z,69.27
2022-11-04T02:55:49.460Z,69.53
2022-11-04T02:58:22.710Z,69.43
2022-11-04T03:00:53.724Z,69.44
2022-11-04T03:03:25.324Z,68.93
2022-11-04T03:05:55.911Z,69.28
2022-11-04T03:08:30.909Z,69.24
2022-11-04T03:11:04.014Z,68.56
2022-11-04T03:13:37.952Z,69.09
2022-11-04T03:16:12.423Z,69.41
2022-11-04T03:18:47.555Z,69.41
2022-11-04T03:21:18.082Z,69.02
2022-11-04T03:23:46.003Z,69.10
2022-11-04T03:26:20.710Z,68.85
2022-11-04T03:28:57.473Z,69.03
2022-11-04T03:31:34.562Z,69.02
2022-11-04T03:34:02.682Z,69.24
2022-11-04T03:36:30.686Z,69.04
2022-11-04T03:38:58.528Z,69.29
2022-11-04T03:41:35.391Z,69.05
2022-11-04T03:44:03.266Z,68.66
2022-11-04T03:46:32.517Z,69.02
2022-11-04T03:49:01.254Z,68.89
2022-11-04T03:51:29.026Z,68.45
2022-11-04T03:53:57.782Z,68.38
2022-11-04T03:57:05.351Z,68.67
2022-11-04T04:00:01.186Z,68.17
2022-11-04T04:02:39.816Z,68.12
2022-11-04T04:05:16.071Z,68.14
2022-11-04T04:07:50.794Z,68.50
2022-11-04T04:10:42.827Z,67.91
2022-11-04T04:13:18.930Z,68.33
2022-11-04T04:15:53.423Z,67.90
2022-11-04T04:18:30.491Z,67.84
2022-11-04T04:21:02.781Z,68.33
2022-11-04T04:23:50.771Z,68.05
2022-11-04T04:26:39.578Z,69.06
2022-11-04T04:29:09.385Z,68.58
2022-11-04T04:31:52.357Z,68.40
2022-11-04T04:34:24.043Z,69.05
2022-11-04T04:36:58.313Z,69.41
2022-11-04T04:39:47.987Z,68.85
2022-11-04T04:42:33.320Z,68.60
2022-11-04T04:45:06.396Z,68.87
2022-11-04T04:47:42.658Z,69.18
2022-11-04T04:50:14.013Z,68.96
2022-11-04T04:52:44.156Z,68.76
2022-11-04T04:55:12.723Z,68.56
2022-11-04T04:57:40.691Z,68.88
2022-11-04T05:00:13.236Z,68.34
2022-11-04T05:02:41.133Z,68.55
2022-11-04T05:05:10.389Z,68.75
2022-11-04T05:07:39.661Z,68.96
2022-11-04T05:10:08.649Z,68.88
2022-11-04T05:12:56.587Z,68.44
2022-11-04T05:15:24.912Z,68.57
2022-11-04T05:17:55.550Z,68.38
2022-11-04T05:20:23.560Z,68.22
2022-11-04T05:22:52.883Z,68.39
2022-11-04T05:25:20.751Z,68.20
2022-11-04T05:27:48.581Z,68.19
2022-11-04T05:30:16.505Z,68.57
2022-11-04T05:32:44.299Z,68.70
2022-11-04T05:35:12.204Z,68.49
2022-11-04T05:37:40.013Z,68.66
2022-11-04T05:40:10.473Z,68.66
2022-11-04T05:42:38.261Z,68.30
2022-11-04T05:45:06.995Z,68.50
2022-11-04T05:47:34.825Z,68.08
2022-11-04T05:50:02.630Z,68.38
2022-11-04T05:52:30.549Z,68.35
2022-11-04T05:54:58.394Z,68.43
2022-11-04T05:57:27.550Z,68.20
2022-11-04T05:59:55.375Z,68.50
2022-11-04T06:02:23.396Z,68.48
2022-11-04T06:04:51.238Z,68.66
2022-11-04T06:07:19.092Z,69.56
2022-11-04T06:09:46.885Z,69.65
2022-11-04T06:12:16.703Z,69.39
2022-11-04T06:14:46.017Z,69.02
2022-11-04T06:17:16.053Z,68.92
2022-11-04T06:19:44.297Z,69.03
2022-11-04T06:22:12.880Z,68.78
2022-11-04T06:24:40.991Z,68.79
2022-11-04T06:27:08.878Z,68.70
2022-11-04T06:29:39.964Z,68.51
2022-11-04T06:32:10.126Z,68.33
2022-11-04T06:34:38.244Z,68.18
2022-11-04T06:37:06.451Z,68.07
2022-11-04T06:39:34.329Z,67.96
2022-11-04T06:42:02.896Z,67.74
2022-11-04T06:44:31.016Z,67.73
2022-11-04T06:46:58.838Z,67.70
2022-11-04T06:49:27.999Z,67.91
2022-11-04T06:51:55.817Z,67.85
2022-11-04T06:54:23.678Z,67.59
2022-11-04T06:56:51.446Z,67.41
2022-11-04T06:59:21.847Z,67.57
2022-11-04T07:01:50.992Z,67.23
2022-11-04T07:04:19.303Z,67.05
2022-11-04T07:06:48.443Z,67.09
2022-11-04T07:09:17.102Z,66.89
2022-11-04T07:11:45.912Z,66.85
2022-11-04T07:14:14.659Z,66.49
2022-11-04T07:16:42.503Z,66.34
2022-11-04T07:19:10.283Z,66.06
2022-11-04T07:21:38.425Z,65.99
2022-11-04T07:24:08.265Z,66.11
2022-11-04T07:26:36.085Z,66.12
2022-11-04T07:29:06.560Z,66.16
2022-11-04T07:31:34.475Z,66.07
2022-11-04T07:34:03.027Z,65.91
2022-11-04T07:36:31.211Z,66.00
2022-11-04T07:38:59.032Z,66.01
2022-11-04T07:41:29.408Z,66.29
2022-11-04T07:43:58.814Z,66.35
2022-11-04T07:46:26.667Z,66.41
2022-11-04T07:48:57.475Z,66.18
2022-11-04T07:51:26.200Z,66.41
2022-11-04T07:53:54.173Z,66.70
2022-11-04T07:56:23.977Z,66.63
2022-11-04T07:58:53.821Z,66.83
2022-11-04T08:01:24.404Z,66.94
2022-11-04T08:03:53.079Z,66.93
2022-11-04T08:06:22.250Z,66.92
2022-11-04T08:08:50.244Z,67.07
2022-11-04T08:11:21.313Z,67.23
2022-11-04T08:13:49.223Z,67.21
2022-11-04T08:16:21.840Z,67.81
2022-11-04T08:18:52.572Z,68.37
2022-11-04T08:21:21.711Z,68.45
2022-11-04T08:23:51.433Z,68.39
2022-11-04T08:26:23.353Z,68.40
2022-11-04T08:28:51.786Z,68.32
2022-11-04T08:31:24.202Z,68.20
2022-11-04T08:33:52.705Z,67.83
2022-11-04T08:36:23.256Z,67.68
2022-11-04T08:38:51.947Z,67.66
2022-11-04T08:41:22.852Z,67.49
2022-11-04T08:43:50.671Z,67.44
2022-11-04T08:46:19.263Z,67.43
2022-11-04T08:48:49.455Z,67.36
2022-11-04T08:51:19.310Z,67.13
2022-11-04T08:53:47.115Z,67.08
2022-11-04T08:56:17.195Z,66.97
2022-11-04T08:58:45.505Z,67.02
2022-11-04T09:01:13.757Z,66.70
2022-11-04T09:03:42.261Z,66.70
2022-11-04T09:06:14.682Z,66.58
2022-11-04T09:08:43.382Z,66.50
2022-11-04T09:11:13.284Z,66.69
2022-11-04T09:13:41.806Z,66.53
2022-11-04T09:16:11.545Z,66.61
2022-11-04T09:18:39.959Z,67.01
2022-11-04T09:21:09.637Z,67.16
2022-11-04T09:23:39.274Z,67.28
2022-11-04T09:26:09.640Z,67.31
2022-11-04T09:28:37.713Z,67.37
2022-11-04T09:31:07.414Z,67.49
2022-11-04T09:33:35.351Z,67.56
2022-11-04T09:36:03.379Z,67.34
2022-11-04T09:38:31.206Z,67.79
2022-11-04T09:41:01.745Z,67.85
2022-11-04T09:43:37.805Z,67.78
2022-11-04T09:46:06.152Z,67.74
2022-11-04T09:48:40.841Z,67.61
2022-11-04T09:51:20.811Z,67.66
2022-11-04T09:54:01.094Z,67.87
2022-11-04T09:56:36.287Z,68.04
2022-11-04T09:59:05.138Z,68.18
2022-11-04T10:01:38.840Z,68.21
2022-11-04T10:04:19.263Z,68.54
2022-11-04T10:07:03.508Z,68.55
2022-11-04T10:09:45.539Z,68.81
2022-11-04T10:12:39.902Z,68.99
2022-11-04T10:15:29.084Z,69.22
2022-11-04T10:18:07.859Z,69.55
2022-11-04T10:20:50.987Z,69.60
2022-11-04T10:23:23.962Z,69.87
2022-11-04T10:25:59.395Z,70.06
2022-11-04T10:28:37.016Z,70.30
2022-11-04T10:31:06.171Z,70.46
2022-11-04T10:33:36.478Z,70.48
2022-11-04T10:36:08.171Z,70.69
2022-11-04T10:38:40.293Z,70.60
2022-11-04T10:41:21.248Z,70.73
2022-11-04T10:43:52.161Z,70.79
2022-11-04T10:46:38.247Z,71.07
2022-11-04T10:49:26.152Z,71.37
2022-11-04T10:51:54.796Z,71.65
2022-11-04T10:54:23.318Z,71.89
2022-11-04T10:56:53.618Z,71.79
2022-11-04T10:59:25.919Z,72.34
2022-11-04T11:01:55.591Z,72.76
2022-11-04T11:04:29.511Z,73.02
2022-11-04T11:06:59.310Z,73.01
2022-11-04T11:09:29.889Z,73.34
2022-11-04T11:12:00.998Z,73.66
2022-11-04T11:14:38.684Z,73.87
2022-11-04T11:17:24.208Z,74.08
2022-11-04T11:19:56.873Z,74.27
2022-11-04T11:22:35.605Z,74.39
2022-11-04T11:25:25.490Z,74.93
2022-11-04T11:27:55.711Z,75.17
2022-11-04T11:30:28.383Z,75.37
2022-11-04T11:33:00.109Z,75.45
2022-11-04T11:35:32.191Z,75.43
2022-11-04T11:38:04.041Z,75.63
2022-11-04T11:40:43.819Z,75.42
2022-11-04T11:43:28.446Z,75.63
2022-11-04T11:46:00.888Z,75.70
2022-11-04T11:48:30.323Z,75.72
2022-11-04T11:51:00.164Z,75.74
2022-11-04T11:53:30.114Z,75.73
2022-11-04T11:56:10.538Z,75.53
2022-11-04T12:01:37.806Z,75.42
2022-11-04T12:10:07.055Z,75.66
2022-11-04T12:12:53.039Z,76.16
2022-11-04T12:16:06.459Z,75.65
2022-11-04T12:19:09.993Z,75.84
2022-11-04T12:21:43.505Z,75.78
2022-11-04T12:24:23.299Z,75.81
2022-11-04T12:26:58.254Z,76.66
2022-11-04T12:29:41.827Z,77.21
2022-11-04T12:32:21.068Z,77.46
2022-11-04T12:35:03.599Z,77.35
2022-11-04T12:37:42.351Z,77.55
2022-11-04T12:40:16.979Z,77.68
2022-11-04T12:43:01.188Z,77.46
2022-11-04T12:45:40.712Z,77.19
2022-11-04T12:48:12.771Z,76.72
2022-11-04T12:50:53.995Z,76.45
2022-11-04T12:53:45.687Z,75.94
2022-11-04T12:56:15.775Z,75.58
2022-11-04T12:59:09.100Z,75.46
2022-11-04T13:01:42.887Z,75.26
2022-11-04T13:04:14.881Z,75.18
2022-11-04T13:06:47.670Z,76.13
2022-11-04T13:09:32.424Z,76.43
2022-11-04T13:12:05.927Z,77.17
2022-11-04T13:14:40.623Z,77.41
2022-11-04T13:17:13.500Z,77.98
2022-11-04T13:19:46.550Z,78.33
2022-11-04T13:22:19.337Z,78.63
2022-11-04T13:24:52.379Z,78.72
2022-11-04T13:27:23.615Z,78.84
2022-11-04T13:30:08.619Z,78.51
2022-11-04T13:32:41.738Z,78.07
2022-11-04T13:35:19.192Z,77.76
2022-11-04T13:37:56.317Z,77.49
2022-11-04T13:40:29.304Z,77.15
2022-11-04T13:43:32.457Z,76.88
2022-11-04T13:46:00.645Z,76.72
2022-11-04T13:48:31.601Z,76.58
2022-11-04T13:51:02.724Z,76.56
2022-11-04T13:53:46.595Z,76.72
2022-11-04T13:56:34.159Z,76.07
2022-11-04T13:59:08.245Z,76.65
2022-11-04T14:01:36.480Z,76.98
2022-11-04T14:04:20.905Z,76.69
2022-11-04T14:06:54.859Z,77.11
2022-11-04T14:09:58.515Z,77.38
2022-11-04T14:12:35.437Z,77.97
2022-11-04T14:15:17.643Z,77.84
2022-11-04T14:18:07.852Z,77.82
2022-11-04T14:20:38.389Z,77.95
2022-11-04T14:23:08.823Z,77.77
2022-11-04T14:25:39.971Z,77.55
2022-11-04T14:28:29.096Z,78.01
2022-11-04T14:30:59.777Z,77.69
2022-11-04T14:33:35.527Z,77.57
2022-11-04T14:36:31.178Z,77.53
2022-11-04T14:39:03.657Z,77.61
2022-11-04T14:42:06.747Z,77.67
2022-11-04T14:44:45.711Z,77.96
2022-11-04T14:47:19.849Z,78.16
2022-11-04T14:49:50.917Z,78.94
2022-11-04T14:52:25.583Z,79.37
2022-11-04T14:54:58.292Z,79.39
2022-11-04T14:57:26.252Z,79.38
2022-11-04T14:59:55.411Z,79.53
2022-11-04T15:02:25.949Z,79.63
2022-11-04T15:04:58.720Z,79.82
2022-11-04T15:07:37.898Z,80.28
2022-11-04T15:10:21.054Z,80.66
2022-11-04T15:12:52.286Z,80.53
2022-11-04T15:15:34.044Z,80.57
2022-11-04T15:18:05.237Z,80.64
2022-11-04T15:20:34.308Z,80.49
2022-11-04T15:23:04.925Z,80.63
2022-11-04T15:25:32.779Z,80.69
2022-11-04T15:28:00.879Z,80.71
2022-11-04T15:30:31.911Z,80.46
2022-11-04T15:33:01.917Z,80.78
2022-11-04T15:35:31.424Z,81.07
2022-11-04T15:38:02.009Z,81.06
2022-11-04T15:40:31.105Z,80.69
2022-11-04T15:43:02.406Z,81.13
2022-11-04T15:45:38.132Z,81.68
2022-11-04T15:48:26.823Z,82.46
2022-11-04T15:51:13.462Z,83.10
2022-11-04T15:53:50.924Z,83.20
2022-11-04T15:56:22.215Z,83.11
2022-11-04T15:58:50.574Z,83.04
2022-11-04T16:01:20.752Z,82.96
2022-11-04T16:03:51.871Z,83.50
2022-11-04T16:06:34.669Z,83.33
2022-11-04T16:09:05.583Z,82.90
2022-11-04T16:11:33.454Z,82.36
2022-11-04T16:14:23.386Z,81.41
2022-11-04T16:16:53.924Z,81.32
2022-11-04T16:19:24.361Z,81.12
2022-11-04T16:22:00.732Z,81.12
2022-11-04T16:24:32.728Z,81.30
2022-11-04T16:27:00.595Z,80.78
2022-11-04T16:29:32.140Z,80.50
2022-11-04T16:32:18.072Z,80.57
2022-11-04T16:34:47.093Z,80.88
2022-11-04T16:37:14.930Z,81.06
2022-11-04T16:39:45.147Z,81.03
2022-11-04T16:42:15.219Z,80.85
2022-11-04T16:44:49.481Z,81.00
2022-11-04T16:47:20.092Z,81.39
2022-11-04T16:49:48.268Z,80.84
2022-11-04T16:52:21.453Z,81.04
2022-11-04T16:54:49.331Z,80.93
2022-11-04T16:57:17.772Z,80.82
2022-11-04T16:59:45.645Z,80.78
2022-11-04T17:02:22.301Z,80.77
2022-11-04T17:04:50.375Z,81.02
2022-11-04T17:07:18.356Z,80.92
2022-11-04T17:09:46.182Z,81.40
2022-11-04T17:12:14.037Z,81.28
2022-11-04T17:14:41.904Z,81.32
2022-11-04T17:17:11.445Z,81.84
2022-11-04T17:19:40.647Z,82.20
2022-11-04T17:22:09.380Z,82.70
2022-11-04T17:24:37.873Z,83.81
2022-11-04T17:27:06.430Z,83.78
2022-11-04T17:29:37.329Z,83.83
2022-11-04T17:32:06.739Z,84.31
2022-11-04T17:34:40.655Z,84.58
2022-11-04T17:37:13.171Z,84.58
2022-11-04T17:39:41.226Z,84.21
2022-11-04T17:42:26.752Z,84.61
2022-11-04T17:44:54.568Z,84.58
2022-11-04T17:47:22.503Z,84.73
2022-11-04T17:49:50.312Z,84.84
2022-11-04T17:52:19.988Z,84.28
2022-11-04T17:54:47.774Z,84.06
2022-11-04T17:57:15.582Z,83.77
2022-11-04T17:59:43.370Z,83.59
2022-11-04T18:02:11.557Z,83.26
2022-11-04T18:04:39.476Z,83.37
2022-11-04T18:07:07.293Z,83.36
2022-11-04T18:09:36.503Z,82.83
2022-11-04T18:12:22.124Z,82.76
2022-11-04T18:14:50.167Z,82.40
2022-11-04T18:17:18.060Z,82.03
2022-11-04T18:19:45.864Z,82.10
2022-11-04T18:22:13.754Z,82.36
2022-11-04T18:24:43.102Z,81.89
2022-11-04T18:27:11.290Z,81.73
2022-11-04T18:29:39.100Z,81.53
2022-11-04T18:32:07.516Z,80.97
2022-11-04T18:34:35.671Z,80.72
2022-11-04T18:37:03.673Z,80.77
2022-11-04T18:39:31.488Z,80.47
2022-11-04T18:42:00.682Z,81.05
2022-11-04T18:44:28.685Z,80.72
2022-11-04T18:46:56.509Z,81.28
2022-11-04T18:49:24.857Z,81.54
2022-11-04T18:51:52.668Z,80.99
2022-11-04T18:54:20.670Z,80.77
2022-11-04T18:56:48.487Z,81.38
2022-11-04T18:59:18.024Z,80.65
2022-11-04T19:01:46.155Z,81.07
2022-11-04T19:04:14.211Z,81.41
2022-11-04T19:06:44.110Z,80.86
2022-11-04T19:09:46.076Z,80.71
2022-11-04T19:12:23.367Z,80.79
2022-11-04T19:14:53.591Z,81.02
2022-11-04T19:17:21.658Z,80.82
2022-11-04T19:19:49.587Z,80.49
2022-11-04T19:22:17.499Z,80.87
2022-11-04T19:24:45.977Z,81.12
2022-11-04T19:27:14.436Z,81.05
2022-11-04T19:29:42.289Z,81.67
2022-11-04T19:32:14.302Z,81.19
2022-11-04T19:34:43.123Z,81.82
2022-11-04T19:37:11.601Z,82.57
2022-11-04T19:39:39.973Z,82.78
2022-11-04T19:42:25.878Z,82.99
2022-11-04T19:44:53.693Z,83.63
2022-11-04T19:47:22.897Z,83.69
2022-11-04T19:49:50.703Z,82.60
2022-11-04T19:52:18.513Z,82.60
2022-11-04T19:54:46.295Z,83.17
2022-11-04T19:57:14.113Z,83.02
2022-11-04T19:59:41.927Z,82.04
2022-11-04T20:02:11.103Z,83.05
2022-11-04T20:04:40.430Z,82.58
2022-11-04T20:07:08.279Z,83.77
2022-11-04T20:09:36.133Z,83.24
2022-11-04T20:12:32.914Z,83.24
2022-11-04T20:15:00.753Z,82.74
2022-11-04T20:17:28.626Z,83.16
2022-11-04T20:19:57.819Z,83.12
2022-11-04T20:22:25.662Z,84.05
2022-11-04T20:24:53.486Z,83.50
2022-11-04T20:27:21.316Z,82.47
2022-11-04T20:29:49.197Z,83.05
2022-11-04T20:32:17.020Z,83.93
2022-11-04T20:34:45.191Z,83.58
2022-11-04T20:37:14.882Z,83.96
2022-11-04T20:39:43.702Z,83.18
2022-11-04T20:42:11.543Z,83.34
2022-11-04T20:44:39.470Z,83.15
2022-11-04T20:47:07.290Z,83.48
2022-11-04T20:49:35.129Z,83.43
2022-11-04T20:52:04.383Z,83.45
2022-11-04T20:54:33.707Z,83.69
2022-11-04T20:57:01.513Z,83.80
2022-11-04T20:59:29.483Z,82.72
2022-11-04T21:01:57.502Z,82.89
2022-11-04T21:04:25.426Z,83.11
2022-11-04T21:06:53.359Z,82.57
2022-11-04T21:09:22.523Z,82.11
2022-11-04T21:11:51.646Z,81.92
2022-11-04T21:14:20.197Z,81.78
2022-11-04T21:16:48.603Z,81.34
2022-11-04T21:19:17.165Z,82.17
2022-11-04T21:21:46.869Z,81.12
2022-11-04T21:24:16.314Z,81.40
2022-11-04T21:26:45.553Z,81.79
2022-11-04T21:29:16.837Z,81.25
2022-11-04T21:31:46.004Z,81.63
2022-11-04T21:34:14.056Z,81.39
2022-11-04T21:36:42.292Z,80.78
2022-11-04T21:39:11.099Z,80.96
2022-11-04T21:41:39.055Z,81.76
2022-11-04T21:44:09.301Z,81.34
2022-11-04T21:46:38.620Z,81.17
2022-11-04T21:49:06.786Z,80.65
2022-11-04T21:51:35.257Z,80.84
2022-11-04T21:54:06.140Z,80.73
2022-11-04T21:56:34.010Z,81.02
2022-11-04T21:59:02.080Z,80.78
2022-11-04T22:01:31.811Z,80.62
2022-11-04T22:04:02.470Z,80.51
2022-11-04T22:06:34.784Z,81.07
2022-11-04T22:09:04.958Z,80.15
2022-11-04T22:11:34.176Z,79.78
2022-11-04T22:14:03.839Z,80.49
2022-11-04T22:16:33.322Z,79.56
2022-11-04T22:19:05.211Z,81.36
2022-11-04T22:21:33.513Z,80.77
2022-11-04T22:24:02.165Z,81.40
2022-11-04T22:26:32.386Z,81.78
2022-11-04T22:29:01.098Z,81.47
2022-11-04T22:31:30.905Z,80.27
2022-11-04T22:33:59.794Z,81.23
2022-11-04T22:36:29.814Z,80.46
2022-11-04T22:38:57.751Z,80.38
2022-11-04T22:41:27.742Z,80.07
2022-11-04T22:43:56.512Z,79.81
2022-11-04T22:46:26.823Z,79.67
2022-11-04T22:48:55.152Z,80.17
2022-11-04T22:51:23.077Z,80.47
2022-11-04T22:53:57.800Z,80.30
2022-11-04T22:56:26.927Z,79.07
2022-11-04T22:58:54.975Z,80.13
2022-11-04T23:01:23.080Z,79.80
2022-11-04T23:03:51.828Z,78.56
2022-11-04T23:06:20.308Z,79.11
2022-11-04T23:08:48.295Z,79.45
2022-11-04T23:11:38.587Z,78.47
2022-11-04T23:14:32.362Z,77.16
2022-11-04T23:17:18.739Z,77.53
2022-11-04T23:19:46.915Z,76.67
2022-11-04T23:22:32.148Z,76.20
2022-11-04T23:25:10.307Z,76.62
2022-11-04T23:27:55.820Z,76.51
2022-11-04T23:30:26.217Z,76.67
2022-11-04T23:32:56.041Z,75.94
2022-11-04T23:35:54.743Z,76.49
2022-11-04T23:38:23.137Z,75.85
2022-11-04T23:41:06.270Z,75.63
2022-11-04T23:43:35.987Z,76.07
2022-11-04T23:46:21.362Z,75.32
2022-11-04T23:49:21.182Z,75.08
2022-11-04T23:52:06.385Z,75.42
2022-11-04T23:54:51.755Z,75.85
2022-11-04T23:57:37.597Z,75.55
